sensor_id;sensor_type;location;lat;lon;timestamp;pressure;altitude;pressure_sealevel;temperature;humidity
38466;BME280;24244;51.950;5.902;2023-08-12T00:00:20;101678.97;;;21.90;86.92
38466;BME280;24244;51.950;5.902;2023-08-12T00:02:47;101678.13;;;21.89;86.82
38466;BME280;24244;51.950;5.902;2023-08-12T00:05:13;101690.03;;;21.88;86.86
38466;BME280;24244;51.950;5.902;2023-08-12T00:07:41;101690.84;;;21.89;87.21
38466;BME280;24244;51.950;5.902;2023-08-12T00:10:09;101689.22;;;21.88;87.02
38466;BME280;24244;51.950;5.902;2023-08-12T00:12:37;101670.50;;;21.86;87.15
38466;BME280;24244;51.950;5.902;2023-08-12T00:15:07;101660.50;;;21.87;86.91
38466;BME280;24244;51.950;5.902;2023-08-12T00:17:35;101665.34;;;21.85;86.90
38466;BME280;24244;51.950;5.902;2023-08-12T00:20:05;101667.44;;;21.83;87.17
38466;BME280;24244;51.950;5.902;2023-08-12T00:22:32;101674.75;;;21.82;87.08
38466;BME280;24244;51.950;5.902;2023-08-12T00:24:59;101665.78;;;21.82;87.30
38466;BME280;24244;51.950;5.902;2023-08-12T00:27:26;101669.59;;;21.81;87.44
38466;BME280;24244;51.950;5.902;2023-08-12T00:29:52;101663.34;;;21.80;87.30
38466;BME280;24244;51.950;5.902;2023-08-12T00:32:20;101669.59;;;21.81;87.56
38466;BME280;24244;51.950;5.902;2023-08-12T00:34:47;101667.34;;;21.78;87.40
38466;BME280;24244;51.950;5.902;2023-08-12T00:37:14;101664.88;;;21.76;87.50
38466;BME280;24244;51.950;5.902;2023-08-12T00:39:41;101673.00;;;21.76;87.76
38466;BME280;24244;51.950;5.902;2023-08-12T00:42:08;101660.50;;;21.75;87.64
38466;BME280;24244;51.950;5.902;2023-08-12T00:44:36;101655.09;;;21.75;87.57
38466;BME280;24244;51.950;5.902;2023-08-12T00:47:03;101644.28;;;21.75;87.54
38466;BME280;24244;51.950;5.902;2023-08-12T00:49:32;101636.16;;;21.75;87.86
38466;BME280;24244;51.950;5.902;2023-08-12T00:51:59;101636.41;;;21.74;87.79
38466;BME280;24244;51.950;5.902;2023-08-12T00:54:27;101641.00;;;21.73;87.86
38466;BME280;24244;51.950;5.902;2023-08-12T00:56:55;101638.31;;;21.73;88.01
38466;BME280;24244;51.950;5.902;2023-08-12T00:59:22;101632.91;;;21.73;87.85
38466;BME280;24244;51.950;5.902;2023-08-12T01:01:49;101628.53;;;21.72;87.94
38466;BME280;24244;51.950;5.902;2023-08-12T01:04:16;101633.72;;;21.74;88.03
38466;BME280;24244;51.950;5.902;2023-08-12T01:06:45;101629.09;;;21.74;87.96
38466;BME280;24244;51.950;5.902;2023-08-12T01:09:12;101624.78;;;21.73;88.01
38466;BME280;24244;51.950;5.902;2023-08-12T01:11:41;101615.81;;;21.73;88.06
38466;BME280;24244;51.950;5.902;2023-08-12T01:14:13;101615.81;;;21.73;88.29
38466;BME280;24244;51.950;5.902;2023-08-12T01:16:45;101608.19;;;21.70;88.29
38466;BME280;24244;51.950;5.902;2023-08-12T01:19:21;101607.34;;;21.69;88.32
38466;BME280;24244;51.950;5.902;2023-08-12T01:21:55;101603.00;;;21.68;88.38
38466;BME280;24244;51.950;5.902;2023-08-12T01:24:26;101603.00;;;21.68;88.29
38466;BME280;24244;51.950;5.902;2023-08-12T01:26:53;101612.16;;;21.67;88.57
38466;BME280;24244;51.950;5.902;2023-08-12T01:29:22;101605.69;;;21.68;88.47
38466;BME280;24244;51.950;5.902;2023-08-12T01:31:53;101604.88;;;21.68;88.61
38466;BME280;24244;51.950;5.902;2023-08-12T01:34:27;101597.59;;;21.68;88.61
38466;BME280;24244;51.950;5.902;2023-08-12T01:36:57;101592.66;;;21.65;88.44
38466;BME280;24244;51.950;5.902;2023-08-12T01:39:27;101588.06;;;21.66;88.90
38466;BME280;24244;51.950;5.902;2023-08-12T01:41:55;101585.59;;;21.64;88.80
38466;BME280;24244;51.950;5.902;2023-08-12T01:44:22;101583.72;;;21.65;88.75
38466;BME280;24244;51.950;5.902;2023-08-12T01:46:49;101582.91;;;21.64;88.60
38466;BME280;24244;51.950;5.902;2023-08-12T01:49:16;101587.47;;;21.64;88.68
38466;BME280;24244;51.950;5.902;2023-08-12T01:51:43;101586.66;;;21.63;88.77
38466;BME280;24244;51.950;5.902;2023-08-12T01:54:10;101577.50;;;21.64;88.88
38466;BME280;24244;51.950;5.902;2023-08-12T01:56:38;101576.66;;;21.64;89.06
38466;BME280;24244;51.950;5.902;2023-08-12T01:59:05;101565.00;;;21.63;88.87
38466;BME280;24244;51.950;5.902;2023-08-12T02:01:32;101565.84;;;21.64;89.21
38466;BME280;24244;51.950;5.902;2023-08-12T02:03:59;101561.47;;;21.63;89.14
38466;BME280;24244;51.950;5.902;2023-08-12T02:06:26;101562.31;;;21.63;89.41
38466;BME280;24244;51.950;5.902;2023-08-12T02:08:54;101565.00;;;21.63;89.03
38466;BME280;24244;51.950;5.902;2023-08-12T02:11:21;101557.13;;;21.62;89.25
38466;BME280;24244;51.950;5.902;2023-08-12T02:13:49;101570.66;;;21.62;89.18
38466;BME280;24244;51.950;5.902;2023-08-12T02:16:15;101572.53;;;21.61;89.30
38466;BME280;24244;51.950;5.902;2023-08-12T02:18:42;101570.88;;;21.60;89.46
38466;BME280;24244;51.950;5.902;2023-08-12T02:21:09;101565.47;;;21.60;89.46
38466;BME280;24244;51.950;5.902;2023-08-12T02:23:36;101567.94;;;21.62;89.46
38466;BME280;24244;51.950;5.902;2023-08-12T02:26:03;101560.06;;;21.60;89.45
38466;BME280;24244;51.950;5.902;2023-08-12T02:28:29;101559.28;;;21.60;89.52
38466;BME280;24244;51.950;5.902;2023-08-12T02:30:58;101560.06;;;21.60;89.67
38466;BME280;24244;51.950;5.902;2023-08-12T02:33:25;101562.78;;;21.60;89.49
38466;BME280;24244;51.950;5.902;2023-08-12T02:35:53;101560.91;;;21.61;89.56
38466;BME280;24244;51.950;5.902;2023-08-12T02:38:20;101553.59;;;21.61;89.46
38466;BME280;24244;51.950;5.902;2023-08-12T02:40:48;101548.44;;;21.60;89.74
38466;BME280;24244;51.950;5.902;2023-08-12T02:43:15;101549.25;;;21.60;89.68
38466;BME280;24244;51.950;5.902;2023-08-12T02:45:42;101544.66;;;21.61;89.92
38466;BME280;24244;51.950;5.902;2023-08-12T02:48:11;101545.47;;;21.61;89.87
38466;BME280;24244;51.950;5.902;2023-08-12T02:50:39;101541.94;;;21.61;90.14
38466;BME280;24244;51.950;5.902;2023-08-12T02:53:06;101538.19;;;21.62;89.93
38466;BME280;24244;51.950;5.902;2023-08-12T02:55:33;101535.47;;;21.62;89.98
38466;BME280;24244;51.950;5.902;2023-08-12T02:58:01;101535.47;;;21.62;90.08
38466;BME280;24244;51.950;5.902;2023-08-12T03:00:27;101531.72;;;21.63;90.02
38466;BME280;24244;51.950;5.902;2023-08-12T03:02:54;101524.66;;;21.62;90.05
38466;BME280;24244;51.950;5.902;2023-08-12T03:05:22;101520.91;;;21.63;90.02
38466;BME280;24244;51.950;5.902;2023-08-12T03:07:49;101526.31;;;21.63;89.93
38466;BME280;24244;51.950;5.902;2023-08-12T03:10:18;101530.06;;;21.62;90.12
38466;BME280;24244;51.950;5.902;2023-08-12T03:12:45;101521.13;;;21.61;90.08
38466;BME280;24244;51.950;5.902;2023-08-12T03:15:12;101514.91;;;21.61;90.30
38466;BME280;24244;51.950;5.902;2023-08-12T03:17:38;101509.47;;;21.61;90.24
38466;BME280;24244;51.950;5.902;2023-08-12T03:20:07;101514.91;;;21.61;90.23
38466;BME280;24244;51.950;5.902;2023-08-12T03:22:37;101512.19;;;21.61;90.31
38466;BME280;24244;51.950;5.902;2023-08-12T03:25:04;101510.31;;;21.61;90.25
38466;BME280;24244;51.950;5.902;2023-08-12T03:27:31;101503.25;;;21.60;90.16
38466;BME280;24244;51.950;5.902;2023-08-12T03:29:58;101495.94;;;21.61;90.38
38466;BME280;24244;51.950;5.902;2023-08-12T03:32:25;101496.78;;;21.61;90.25
38466;BME280;24244;51.950;5.902;2023-08-12T03:34:52;101491.38;;;21.61;90.37
38466;BME280;24244;51.950;5.902;2023-08-12T03:37:19;101482.44;;;21.61;90.37
38466;BME280;24244;51.950;5.902;2023-08-12T03:39:47;101484.91;;;21.62;90.47
38466;BME280;24244;51.950;5.902;2023-08-12T03:42:14;101478.91;;;21.60;90.46
38466;BME280;24244;51.950;5.902;2023-08-12T03:44:43;101481.38;;;21.62;90.43
38466;BME280;24244;51.950;5.902;2023-08-12T03:47:10;101469.72;;;21.61;90.61
38466;BME280;24244;51.950;5.902;2023-08-12T03:49:38;101471.59;;;21.61;90.51
38466;BME280;24244;51.950;5.902;2023-08-12T03:52:04;101466.19;;;21.61;90.51
38466;BME280;24244;51.950;5.902;2023-08-12T03:54:33;101464.31;;;21.61;90.61
38466;BME280;24244;51.950;5.902;2023-08-12T03:57:02;101466.47;;;21.59;90.84
38466;BME280;24244;51.950;5.902;2023-08-12T03:59:28;101462.94;;;21.59;90.62
38466;BME280;24244;51.950;5.902;2023-08-12T04:01:55;101463.75;;;21.59;90.64
38466;BME280;24244;51.950;5.902;2023-08-12T04:04:22;101464.56;;;21.60;90.67
38466;BME280;24244;51.950;5.902;2023-08-12T04:06:49;101469.16;;;21.59;90.71
38466;BME280;24244;51.950;5.902;2023-08-12T04:09:18;101468.34;;;21.59;90.44
38466;BME280;24244;51.950;5.902;2023-08-12T04:11:45;101462.66;;;21.60;90.76
38466;BME280;24244;51.950;5.902;2023-08-12T04:14:14;101463.47;;;21.61;90.56
38466;BME280;24244;51.950;5.902;2023-08-12T04:16:41;101459.41;;;21.58;90.52
38466;BME280;24244;51.950;5.902;2023-08-12T04:19:08;101452.09;;;21.59;90.75
38466;BME280;24244;51.950;5.902;2023-08-12T04:21:35;101449.41;;;21.59;90.87
38466;BME280;24244;51.950;5.902;2023-08-12T04:24:02;101452.09;;;21.59;90.82
38466;BME280;24244;51.950;5.902;2023-08-12T04:26:29;101442.34;;;21.58;90.86
38466;BME280;24244;51.950;5.902;2023-08-12T04:28:55;101448.81;;;21.57;90.87
38466;BME280;24244;51.950;5.902;2023-08-12T04:31:23;101449.88;;;21.56;91.07
38466;BME280;24244;51.950;5.902;2023-08-12T04:33:50;101452.81;;;21.54;90.94
38466;BME280;24244;51.950;5.902;2023-08-12T04:36:19;101442.00;;;21.54;90.88
38466;BME280;24244;51.950;5.902;2023-08-12T04:38:46;101436.56;;;21.54;91.06
38466;BME280;24244;51.950;5.902;2023-08-12T04:41:13;101431.16;;;21.54;91.11
38466;BME280;24244;51.950;5.902;2023-08-12T04:43:40;101432.81;;;21.55;91.06
38466;BME280;24244;51.950;5.902;2023-08-12T04:46:06;101423.31;;;21.53;90.98
38466;BME280;24244;51.950;5.902;2023-08-12T04:48:35;101423.31;;;21.53;91.38
38466;BME280;24244;51.950;5.902;2023-08-12T04:51:01;101416.25;;;21.52;91.09
38466;BME280;24244;51.950;5.902;2023-08-12T04:53:29;101418.16;;;21.51;91.36
38466;BME280;24244;51.950;5.902;2023-08-12T04:55:56;101424.13;;;21.53;91.15
38466;BME280;24244;51.950;5.902;2023-08-12T04:58:23;101420.63;;;21.53;91.39
38466;BME280;24244;51.950;5.902;2023-08-12T05:00:50;101419.28;;;21.55;91.36
38466;BME280;24244;51.950;5.902;2023-08-12T05:03:18;101407.41;;;21.56;91.20
38466;BME280;24244;51.950;5.902;2023-08-12T05:05:50;101401.19;;;21.56;91.47
38466;BME280;24244;51.950;5.902;2023-08-12T05:08:17;101411.53;;;21.59;91.29
38466;BME280;24244;51.950;5.902;2023-08-12T05:10:46;101420.47;;;21.59;91.29
38466;BME280;24244;51.950;5.902;2023-08-12T05:13:13;101417.75;;;21.59;91.36
38466;BME280;24244;51.950;5.902;2023-08-12T05:15:40;101417.50;;;21.61;91.40
38466;BME280;24244;51.950;5.902;2023-08-12T05:18:07;101414.78;;;21.61;91.38
38466;BME280;24244;51.950;5.902;2023-08-12T05:20:34;101409.38;;;21.61;91.51
38466;BME280;24244;51.950;5.902;2023-08-12T05:23:03;101404.78;;;21.61;91.61
38466;BME280;24244;51.950;5.902;2023-08-12T05:25:30;101378.56;;;21.62;91.47
38466;BME280;24244;51.950;5.902;2023-08-12T05:27:56;101384.78;;;21.62;91.18
38466;BME280;24244;51.950;5.902;2023-08-12T05:30:23;101385.84;;;21.61;91.51
38466;BME280;24244;51.950;5.902;2023-08-12T05:32:50;101385.84;;;21.61;91.56
38466;BME280;24244;51.950;5.902;2023-08-12T05:35:17;101387.50;;;21.62;91.51
38466;BME280;24244;51.950;5.902;2023-08-12T05:37:44;101382.91;;;21.63;91.63
38466;BME280;24244;51.950;5.902;2023-08-12T05:40:12;101383.97;;;21.62;91.70
38466;BME280;24244;51.950;5.902;2023-08-12T05:42:39;101399.38;;;21.61;91.57
38466;BME280;24244;51.950;5.902;2023-08-12T05:45:06;101404.22;;;21.59;91.79
38466;BME280;24244;51.950;5.902;2023-08-12T05:47:34;101390.69;;;21.59;91.51
38466;BME280;24244;51.950;5.902;2023-08-12T05:50:01;101389.06;;;21.58;91.60
38466;BME280;24244;51.950;5.902;2023-08-12T05:52:28;101392.81;;;21.57;91.67
38466;BME280;24244;51.950;5.902;2023-08-12T05:54:54;101397.41;;;21.57;91.82
38466;BME280;24244;51.950;5.902;2023-08-12T05:57:22;101387.41;;;21.57;91.73
38466;BME280;24244;51.950;5.902;2023-08-12T05:59:53;101385.19;;;21.54;91.73
38466;BME280;24244;51.950;5.902;2023-08-12T06:02:20;101383.53;;;21.53;91.93
38466;BME280;24244;51.950;5.902;2023-08-12T06:04:47;101388.94;;;21.53;92.00
38466;BME280;24244;51.950;5.902;2023-08-12T06:07:14;101387.81;;;21.49;91.61
38466;BME280;24244;51.950;5.902;2023-08-12T06:09:40;101391.56;;;21.48;91.79
38466;BME280;24244;51.950;5.902;2023-08-12T06:12:07;101381.81;;;21.47;91.76
38466;BME280;24244;51.950;5.902;2023-08-12T06:14:37;101379.38;;;21.45;91.98
38466;BME280;24244;51.950;5.902;2023-08-12T06:17:04;101380.44;;;21.44;91.96
38466;BME280;24244;51.950;5.902;2023-08-12T06:19:31;101384.41;;;21.42;92.03
38466;BME280;24244;51.950;5.902;2023-08-12T06:21:58;101382.19;;;21.39;91.97
38466;BME280;24244;51.950;5.902;2023-08-12T06:24:25;101387.03;;;21.37;92.12
38466;BME280;24244;51.950;5.902;2023-08-12T06:26:52;101388.34;;;21.34;92.23
38466;BME280;24244;51.950;5.902;2023-08-12T06:29:18;101391.28;;;21.33;92.27
38466;BME280;24244;51.950;5.902;2023-08-12T06:31:46;101388.56;;;21.33;92.18
38466;BME280;24244;51.950;5.902;2023-08-12T06:34:14;101382.59;;;21.31;92.09
38466;BME280;24244;51.950;5.902;2023-08-12T06:36:40;101384.22;;;21.32;92.08
38466;BME280;24244;51.950;5.902;2023-08-12T06:39:07;101375.56;;;21.30;92.07
38466;BME280;24244;51.950;5.902;2023-08-12T06:41:35;101377.66;;;21.28;92.02
38466;BME280;24244;51.950;5.902;2023-08-12T06:44:02;101384.38;;;21.25;91.96
38466;BME280;24244;51.950;5.902;2023-08-12T06:46:30;101378.13;;;21.25;92.01
38466;BME280;24244;51.950;5.902;2023-08-12T06:48:59;101368.41;;;21.24;91.93
38466;BME280;24244;51.950;5.902;2023-08-12T06:51:26;101361.59;;;21.21;91.82
38466;BME280;24244;51.950;5.902;2023-08-12T06:53:52;101356.41;;;21.20;91.78
38466;BME280;24244;51.950;5.902;2023-08-12T06:56:19;101362.88;;;21.19;91.88
38466;BME280;24244;51.950;5.902;2023-08-12T06:58:46;101357.75;;;21.17;92.03
38466;BME280;24244;51.950;5.902;2023-08-12T07:01:12;101355.03;;;21.17;92.09
38466;BME280;24244;51.950;5.902;2023-08-12T07:03:41;101354.22;;;21.17;92.03
38466;BME280;24244;51.950;5.902;2023-08-12T07:06:09;101355.03;;;21.17;92.13
38466;BME280;24244;51.950;5.902;2023-08-12T07:08:36;101352.34;;;21.17;92.06
38466;BME280;24244;51.950;5.902;2023-08-12T07:11:03;101351.25;;;21.18;92.23
38466;BME280;24244;51.950;5.902;2023-08-12T07:13:31;101351.84;;;21.20;92.36
38466;BME280;24244;51.950;5.902;2023-08-12T07:16:00;101348.91;;;21.22;92.06
38466;BME280;24244;51.950;5.902;2023-08-12T07:18:27;101348.31;;;21.20;92.05
38466;BME280;24244;51.950;5.902;2023-08-12T07:20:55;101345.38;;;21.21;92.08
38466;BME280;24244;51.950;5.902;2023-08-12T07:23:23;101343.72;;;21.20;92.42
38466;BME280;24244;51.950;5.902;2023-08-12T07:25:50;101338.09;;;21.22;92.24
38466;BME280;24244;51.950;5.902;2023-08-12T07:28:17;101334.31;;;21.23;92.25
38466;BME280;24244;51.950;5.902;2023-08-12T07:30:44;101330.56;;;21.24;92.51
38466;BME280;24244;51.950;5.902;2023-08-12T07:33:10;101336.78;;;21.24;92.48
38466;BME280;24244;51.950;5.902;2023-08-12T07:35:37;101321.63;;;21.23;92.44
38466;BME280;24244;51.950;5.902;2023-08-12T07:38:04;101324.56;;;21.22;92.44
38466;BME280;24244;51.950;5.902;2023-08-12T07:40:33;101318.34;;;21.21;92.63
38466;BME280;24244;51.950;5.902;2023-08-12T07:43:00;101323.50;;;21.23;92.62
38466;BME280;24244;51.950;5.902;2023-08-12T07:45:27;101320.78;;;21.23;92.77
38466;BME280;24244;51.950;5.902;2023-08-12T07:47:54;101309.16;;;21.22;92.27
38466;BME280;24244;51.950;5.902;2023-08-12T07:50:21;101309.41;;;21.21;92.62
38466;BME280;24244;51.950;5.902;2023-08-12T07:52:47;101304.00;;;21.21;92.66
38466;BME280;24244;51.950;5.902;2023-08-12T07:55:14;101302.34;;;21.20;92.76
38466;BME280;24244;51.950;5.902;2023-08-12T07:57:44;101305.88;;;21.20;92.91
38466;BME280;24244;51.950;5.902;2023-08-12T08:00:12;101304.22;;;21.19;92.73
38466;BME280;24244;51.950;5.902;2023-08-12T08:02:39;101306.38;;;21.17;92.91
38466;BME280;24244;51.950;5.902;2023-08-12T08:05:07;101300.16;;;21.17;92.90
38466;BME280;24244;51.950;5.902;2023-08-12T08:07:34;101302.03;;;21.16;92.51
38466;BME280;24244;51.950;5.902;2023-08-12T08:10:01;101296.63;;;21.16;93.02
38466;BME280;24244;51.950;5.902;2023-08-12T08:12:27;101295.56;;;21.17;92.87
38466;BME280;24244;51.950;5.902;2023-08-12T08:14:55;101296.63;;;21.16;93.10
38466;BME280;24244;51.950;5.902;2023-08-12T08:17:22;101296.81;;;21.15;92.95
38466;BME280;24244;51.950;5.902;2023-08-12T08:19:49;101297.06;;;21.13;93.24
38466;BME280;24244;51.950;5.902;2023-08-12T08:22:16;101295.75;;;21.16;93.00
38466;BME280;24244;51.950;5.902;2023-08-12T08:24:42;101289.31;;;21.17;93.13
38466;BME280;24244;51.950;5.902;2023-08-12T08:27:09;101284.75;;;21.17;92.92
38466;BME280;24244;51.950;5.902;2023-08-12T08:29:36;101280.94;;;21.18;93.07
38466;BME280;24244;51.950;5.902;2023-08-12T08:32:04;101277.19;;;21.19;93.16
38466;BME280;24244;51.950;5.902;2023-08-12T08:34:31;101278.00;;;21.20;93.03
38466;BME280;24244;51.950;5.902;2023-08-12T08:36:58;101285.88;;;21.21;93.22
38466;BME280;24244;51.950;5.902;2023-08-12T08:39:25;101287.53;;;21.22;93.30
38466;BME280;24244;51.950;5.902;2023-08-12T08:41:55;101284.31;;;21.25;93.10
38466;BME280;24244;51.950;5.902;2023-08-12T08:44:23;101287.03;;;21.25;93.16
38466;BME280;24244;51.950;5.902;2023-08-12T08:46:52;101284.31;;;21.25;93.12
38466;BME280;24244;51.950;5.902;2023-08-12T08:49:21;101291.97;;;21.28;93.39
38466;BME280;24244;51.950;5.902;2023-08-12T08:51:50;101295.47;;;21.29;93.36
38466;BME280;24244;51.950;5.902;2023-08-12T08:54:18;101302.53;;;21.30;93.49
38466;BME280;24244;51.950;5.902;2023-08-12T08:56:45;101297.94;;;21.30;93.46
38466;BME280;24244;51.950;5.902;2023-08-12T08:59:18;101301.22;;;21.32;93.61
38466;BME280;24244;51.950;5.902;2023-08-12T09:01:45;101301.22;;;21.32;93.58
38466;BME280;24244;51.950;5.902;2023-08-12T09:04:15;101297.44;;;21.33;93.71
38466;BME280;24244;51.950;5.902;2023-08-12T09:06:44;101304.50;;;21.34;93.83
38466;BME280;24244;51.950;5.902;2023-08-12T09:09:13;101303.44;;;21.35;93.90
38466;BME280;24244;51.950;5.902;2023-08-12T09:11:42;101305.09;;;21.36;93.98
38466;BME280;24244;51.950;5.902;2023-08-12T09:14:11;101314.03;;;21.37;94.19
38466;BME280;24244;51.950;5.902;2023-08-12T09:16:37;101310.50;;;21.36;94.02
38466;BME280;24244;51.950;5.902;2023-08-12T09:19:04;101314.25;;;21.35;94.28
38466;BME280;24244;51.950;5.902;2023-08-12T09:21:32;101324.00;;;21.36;94.43
38466;BME280;24244;51.950;5.902;2023-08-12T09:24:02;101320.25;;;21.37;94.51
38466;BME280;24244;51.950;5.902;2023-08-12T09:26:29;101330.00;;;21.38;94.54
38466;BME280;24244;51.950;5.902;2023-08-12T09:28:58;101330.81;;;21.39;94.41
38466;BME280;24244;51.950;5.902;2023-08-12T09:31:26;101329.75;;;21.40;94.40
38466;BME280;24244;51.950;5.902;2023-08-12T09:33:57;101333.50;;;21.39;94.59
38466;BME280;24244;51.950;5.902;2023-08-12T09:36:27;101338.69;;;21.40;94.67
38466;BME280;24244;51.950;5.902;2023-08-12T09:38:55;101339.50;;;21.41;94.72
38466;BME280;24244;51.950;5.902;2023-08-12T09:41:24;101345.72;;;21.41;94.78
38466;BME280;24244;51.950;5.902;2023-08-12T09:43:51;101343.84;;;21.42;94.91
38466;BME280;24244;51.950;5.902;2023-08-12T09:46:21;101349.84;;;21.44;94.81
38466;BME280;24244;51.950;5.902;2023-08-12T09:48:50;101342.56;;;21.44;94.84
38466;BME280;24244;51.950;5.902;2023-08-12T09:51:18;101336.41;;;21.49;94.99
38466;BME280;24244;51.950;5.902;2023-08-12T09:53:47;101333.47;;;21.51;94.95
38466;BME280;24244;51.950;5.902;2023-08-12T09:56:17;101337.31;;;21.55;94.96
38466;BME280;24244;51.950;5.902;2023-08-12T09:58:47;101333.53;;;21.56;94.90
38466;BME280;24244;51.950;5.902;2023-08-12T10:01:16;101344.94;;;21.58;94.66
38466;BME280;24244;51.950;5.902;2023-08-12T10:03:47;101359.28;;;21.58;94.66
38466;BME280;24244;51.950;5.902;2023-08-12T10:06:15;101353.88;;;21.58;94.48
38466;BME280;24244;51.950;5.902;2023-08-12T10:08:42;101346.25;;;21.55;94.43
38466;BME280;24244;51.950;5.902;2023-08-12T10:11:10;101342.72;;;21.55;94.74
38466;BME280;24244;51.950;5.902;2023-08-12T10:13:40;101339.78;;;21.56;94.76
38466;BME280;24244;51.950;5.902;2023-08-12T10:16:08;101327.88;;;21.57;94.93
38466;BME280;24244;51.950;5.902;2023-08-12T10:18:36;101321.19;;;21.60;94.83
38466;BME280;24244;51.950;5.902;2023-08-12T10:21:06;101338.53;;;21.64;94.59
38466;BME280;24244;51.950;5.902;2023-08-12T10:23:35;101336.09;;;21.62;94.64
38466;BME280;24244;51.950;5.902;2023-08-12T10:26:05;101353.97;;;21.63;94.67
38466;BME280;24244;51.950;5.902;2023-08-12T10:28:33;101353.72;;;21.65;94.64
38466;BME280;24244;51.950;5.902;2023-08-12T10:31:04;101374.31;;;21.66;94.50
38466;BME280;24244;51.950;5.902;2023-08-12T10:33:36;101369.72;;;21.66;94.61
38466;BME280;24244;51.950;5.902;2023-08-12T10:36:04;101373.25;;;21.67;94.33
38466;BME280;24244;51.950;5.902;2023-08-12T10:38:32;101371.34;;;21.67;94.67
38466;BME280;24244;51.950;5.902;2023-08-12T10:41:19;101394.63;;;21.68;94.44
38466;BME280;24244;51.950;5.902;2023-08-12T10:43:51;101388.06;;;21.64;94.35
38466;BME280;24244;51.950;5.902;2023-08-12T10:46:23;101381.50;;;21.60;94.05
38466;BME280;24244;51.950;5.902;2023-08-12T10:49:05;101383.06;;;21.56;94.10
38466;BME280;24244;51.950;5.902;2023-08-12T10:51:45;101377.66;;;21.56;93.76
38466;BME280;24244;51.950;5.902;2023-08-12T10:54:20;101381.19;;;21.57;93.89
38466;BME280;24244;51.950;5.902;2023-08-12T10:57:07;101382.00;;;21.57;93.92
38466;BME280;24244;51.950;5.902;2023-08-12T10:59:52;101383.66;;;21.58;94.01
38466;BME280;24244;51.950;5.902;2023-08-12T11:02:21;101380.69;;;21.60;93.90
38466;BME280;24244;51.950;5.902;2023-08-12T11:04:56;101377.72;;;21.61;93.79
38466;BME280;24244;51.950;5.902;2023-08-12T11:07:29;101381.03;;;21.63;93.85
38466;BME280;24244;51.950;5.902;2023-08-12T11:09:59;101374.31;;;21.66;93.68
38466;BME280;24244;51.950;5.902;2023-08-12T11:12:33;101380.03;;;21.69;93.22
38466;BME280;24244;51.950;5.902;2023-08-12T11:15:02;101385.22;;;21.71;93.15
38466;BME280;24244;51.950;5.902;2023-08-12T11:17:34;101383.09;;;21.73;93.00
38466;BME280;24244;51.950;5.902;2023-08-12T11:20:05;101373.91;;;21.74;92.38
38466;BME280;24244;51.950;5.902;2023-08-12T11:22:34;101366.94;;;21.78;92.46
38466;BME280;24244;51.950;5.902;2023-08-12T11:25:02;101374.31;;;21.82;92.04
38466;BME280;24244;51.950;5.902;2023-08-12T11:27:36;101379.47;;;21.84;91.68
38466;BME280;24244;51.950;5.902;2023-08-12T11:30:04;101383.00;;;21.84;91.25
38466;BME280;24244;51.950;5.902;2023-08-12T11:32:32;101387.34;;;21.85;90.82
38466;BME280;24244;51.950;5.902;2023-08-12T11:34:59;101381.72;;;21.87;90.55
38466;BME280;24244;51.950;5.902;2023-08-12T11:37:27;101379.06;;;21.92;90.31
38466;BME280;24244;51.950;5.902;2023-08-12T11:39:54;101379.66;;;21.94;90.13
38466;BME280;24244;51.950;5.902;2023-08-12T11:42:21;101378.34;;;21.97;88.88
38466;BME280;24244;51.950;5.902;2023-08-12T11:44:48;101377.06;;;21.99;87.98
38466;BME280;24244;51.950;5.902;2023-08-12T11:47:15;101379.53;;;22.01;87.36
38466;BME280;24244;51.950;5.902;2023-08-12T11:49:41;101386.31;;;22.03;87.43
38466;BME280;24244;51.950;5.902;2023-08-12T11:52:09;101388.53;;;22.06;87.81
38466;BME280;24244;51.950;5.902;2023-08-12T11:54:38;101381.53;;;22.10;87.31
38466;BME280;24244;51.950;5.902;2023-08-12T11:57:05;101384.00;;;22.12;87.09
38466;BME280;24244;51.950;5.902;2023-08-12T11:59:32;101389.44;;;22.12;85.79
38466;BME280;24244;51.950;5.902;2023-08-12T12:02:01;101394.84;;;22.12;85.48
38466;BME280;24244;51.950;5.902;2023-08-12T12:04:30;101396.41;;;22.08;85.79
38466;BME280;24244;51.950;5.902;2023-08-12T12:06:57;101391.00;;;22.08;84.32
38466;BME280;24244;51.950;5.902;2023-08-12T12:09:24;101389.13;;;22.08;84.32
38466;BME280;24244;51.950;5.902;2023-08-12T12:11:53;101382.13;;;22.12;84.08
38466;BME280;24244;51.950;5.902;2023-08-12T12:14:21;101390.31;;;22.17;82.02
38466;BME280;24244;51.950;5.902;2023-08-12T12:16:48;101380.88;;;22.20;81.52
38466;BME280;24244;51.950;5.902;2023-08-12T12:19:17;101382.28;;;22.22;81.88
38466;BME280;24244;51.950;5.902;2023-08-12T12:21:45;101383.94;;;22.23;81.88
38466;BME280;24244;51.950;5.902;2023-08-12T12:24:12;101389.66;;;22.27;82.03
38466;BME280;24244;51.950;5.902;2023-08-12T12:26:40;101385.56;;;22.24;79.16
38466;BME280;24244;51.950;5.902;2023-08-12T12:29:09;101392.06;;;22.23;79.98
38466;BME280;24244;51.950;5.902;2023-08-12T12:31:38;101385.56;;;22.24;80.25
38466;BME280;24244;51.950;5.902;2023-08-12T12:34:06;101397.22;;;22.25;79.92
38466;BME280;24244;51.950;5.902;2023-08-12T12:36:34;101391.56;;;22.26;80.20
38466;BME280;24244;51.950;5.902;2023-08-12T12:39:02;101390.72;;;22.26;79.85
38466;BME280;24244;51.950;5.902;2023-08-12T12:41:29;101401.09;;;22.29;79.45
38466;BME280;24244;51.950;5.902;2023-08-12T12:43:56;101405.66;;;22.29;79.48
38466;BME280;24244;51.950;5.902;2023-08-12T12:46:24;101392.94;;;22.29;79.53
38466;BME280;24244;51.950;5.902;2023-08-12T12:48:51;101405.44;;;22.30;79.59
38466;BME280;24244;51.950;5.902;2023-08-12T12:51:18;101407.88;;;22.32;79.80
38466;BME280;24244;51.950;5.902;2023-08-12T12:53:45;101413.88;;;22.34;79.82